SPHY

Andahuaylas Airport

Andahuaylas, Peru
SPHY 201710Z 2018/2118 01008KT 9999 FEW015 BKN040 TX16/2020Z TN01/2111Z FM210100 00000KT 8000 SCT013 BKN060
Issued Valid From Valid To
Apr-20 @ 17:10 UTC
(an hour ago)
Apr-20 @ 18:00 UTC
(29 minutes ago)
Apr-21 @ 18:00 UTC
(in 24 hours)
Apr-20 @ 18:00 to Apr-21 @ 01:00
SPHY 201710Z 2018/2118 01008KT 9999 FEW015 BKN040 TX16/2020Z TN01/2111Z
Wind Visibility Clouds
10° at 8 knots 10,000+ meters
  • Few at 1,500' AGL
  • Broken at 4,000' AGL
From Apr-21 @ 01:00 to Apr-21 @ 18:00
FM210100 00000KT 8000 SCT013 BKN060
Visibility Clouds
7,998 meters
  • Scattered at 1,300' AGL
  • Broken at 6,000' AGL
SPHY 201710Z 2018/2118 01008KT 9999 FEW015 BKN040 TX16/2020Z TN01/2111Z FM210100 00000KT 8000 SCT013 BKN060
Issued Apr-20 @ 17:10 UTC
(an hour ago)
Valid From Apr-20 @ 18:00 UTC
(29 minutes ago)
Valid To Apr-21 @ 18:00 UTC
(in 24 hours)
Apr-20 @ 18:00 - Apr-21 @ 01:00
Wind Visibility
10° at 8 knots 10,000+ meters
Clouds
  • Few at 1,500' AGL
  • Broken at 4,000' AGL
From Apr-21 @ 01:00 - Apr-21 @ 18:00
Clouds
  • Scattered at 1,300' AGL
  • Broken at 6,000' AGL